createdAt,value
2022-12-06T00:00:09.344Z,1.19
2022-12-06T00:02:37.205Z,1.16
2022-12-06T00:05:05.357Z,1.27
2022-12-06T00:07:33.158Z,1.27
2022-12-06T00:10:01.178Z,1.25
2022-12-06T00:12:30.421Z,1.21
2022-12-06T00:14:58.125Z,1.25
2022-12-06T00:17:25.882Z,1.23
2022-12-06T00:19:53.591Z,1.18
2022-12-06T00:22:21.573Z,1.06
2022-12-06T00:24:49.246Z,1.01
2022-12-06T00:27:17.015Z,0.97
2022-12-06T00:29:46.092Z,0.84
2022-12-06T00:32:19.226Z,0.73
2022-12-06T00:34:47.283Z,0.62
2022-12-06T00:37:14.993Z,0.58
2022-12-06T00:39:43.359Z,0.55
2022-12-06T00:42:11.050Z,0.55
2022-12-06T00:44:38.793Z,0.49
2022-12-06T00:47:07.824Z,0.49
2022-12-06T00:49:35.597Z,0.51
2022-12-06T00:52:03.308Z,0.57
2022-12-06T00:54:31.053Z,0.57
2022-12-06T00:56:58.770Z,0.64
2022-12-06T00:59:27.377Z,0.63
2022-12-06T01:01:55.098Z,0.59
2022-12-06T01:04:24.211Z,0.54
2022-12-06T01:06:51.913Z,0.53
2022-12-06T01:09:19.690Z,0.47
2022-12-06T01:11:48.558Z,0.45
2022-12-06T01:14:16.256Z,0.44
2022-12-06T01:16:44.031Z,0.42
2022-12-06T01:19:13.472Z,0.40
2022-12-06T01:21:42.628Z,0.44
2022-12-06T01:24:10.380Z,0.42
2022-12-06T01:26:38.063Z,0.35
2022-12-06T01:29:06.139Z,0.35
2022-12-06T01:31:38.544Z,0.38
2022-12-06T01:34:07.803Z,0.38
2022-12-06T01:36:35.564Z,0.33
2022-12-06T01:39:07.012Z,0.31
2022-12-06T01:41:34.948Z,0.25
2022-12-06T01:44:02.784Z,0.24
2022-12-06T01:46:34.862Z,0.18
2022-12-06T01:49:16.228Z,0.21
2022-12-06T01:51:49.418Z,0.25
2022-12-06T01:54:21.822Z,0.24
2022-12-06T01:56:52.234Z,0.17
2022-12-06T01:59:20.945Z,0.13
2022-12-06T02:01:49.245Z,0.08
2022-12-06T02:04:18.765Z,0.04
2022-12-06T02:06:47.899Z,0.03
2022-12-06T02:09:18.245Z,-0.01
2022-12-06T02:11:47.283Z,-0.09
2022-12-06T02:14:19.164Z,-0.08
2022-12-06T02:16:59.277Z,-0.09
2022-12-06T02:19:56.592Z,-0.08
2022-12-06T02:22:32.308Z,-0.10
2022-12-06T02:25:25.238Z,-0.08
2022-12-06T02:28:07.438Z,-0.04
2022-12-06T02:30:44.020Z,-0.02
2022-12-06T02:33:20.549Z,0.02
2022-12-06T02:35:52.218Z,0.05
2022-12-06T02:38:28.489Z,0.09
2022-12-06T02:41:00.261Z,0.04
2022-12-06T02:43:34.216Z,0.09
2022-12-06T02:46:05.591Z,0.13
2022-12-06T02:48:35.895Z,0.12
2022-12-06T02:51:07.733Z,0.10
2022-12-06T02:53:39.950Z,0.05
2022-12-06T02:56:09.317Z,0.10
2022-12-06T02:58:37.618Z,0.06
2022-12-06T03:01:11.050Z,0.03
2022-12-06T03:03:58.859Z,0.01
2022-12-06T03:06:43.293Z,0.01
2022-12-06T03:09:24.448Z,0.06
2022-12-06T03:11:59.446Z,0.00
2022-12-06T03:14:29.383Z,-0.04
2022-12-06T03:17:08.733Z,-0.09
2022-12-06T03:19:40.169Z,-0.09
2022-12-06T03:22:12.386Z,-0.04
2022-12-06T03:24:43.268Z,-0.06
2022-12-06T03:27:13.601Z,-0.04
2022-12-06T03:29:44.921Z,-0.01
2022-12-06T03:32:16.957Z,0.01
2022-12-06T03:34:50.102Z,-0.01
2022-12-06T03:37:22.703Z,-0.02
2022-12-06T03:39:59.584Z,-0.02
2022-12-06T03:42:27.873Z,-0.03
2022-12-06T03:44:55.881Z,-0.08
2022-12-06T03:47:31.967Z,-0.07
2022-12-06T03:50:03.855Z,-0.04
2022-12-06T03:52:31.803Z,-0.04
2022-12-06T03:55:03.199Z,-0.07
2022-12-06T03:57:30.905Z,-0.10
2022-12-06T03:59:58.912Z,-0.15
2022-12-06T04:02:28.141Z,-0.17
2022-12-06T04:04:55.867Z,-0.14
2022-12-06T04:07:23.559Z,-0.08
2022-12-06T04:09:56.421Z,-0.11
2022-12-06T04:12:43.995Z,-0.16
2022-12-06T04:15:12.199Z,-0.13
2022-12-06T04:17:59.159Z,-0.15
2022-12-06T04:20:28.449Z,-0.18
2022-12-06T04:23:04.213Z,-0.19
2022-12-06T04:25:32.987Z,-0.22
2022-12-06T04:28:18.602Z,-0.24
2022-12-06T04:31:05.539Z,-0.24
2022-12-06T04:33:52.063Z,-0.24
2022-12-06T04:36:37.483Z,-0.19
2022-12-06T04:39:05.312Z,-0.20
2022-12-06T04:41:50.412Z,-0.15
2022-12-06T04:44:18.189Z,-0.20
2022-12-06T04:46:46.027Z,-0.27
2022-12-06T04:49:15.237Z,-0.31
2022-12-06T04:51:42.933Z,-0.35
2022-12-06T04:54:10.696Z,-0.33
2022-12-06T04:56:38.463Z,-0.20
2022-12-06T04:59:06.176Z,-0.20
2022-12-06T05:01:33.863Z,-0.24
2022-12-06T05:04:01.631Z,-0.25
2022-12-06T05:06:33.449Z,-0.26
2022-12-06T05:09:01.196Z,-0.27
2022-12-06T05:11:28.875Z,-0.32
2022-12-06T05:13:56.635Z,-0.35
2022-12-06T05:16:24.399Z,-0.36
2022-12-06T05:18:52.181Z,-0.40
2022-12-06T05:21:22.594Z,-0.36
2022-12-06T05:23:54.223Z,-0.37
2022-12-06T05:26:24.038Z,-0.37
2022-12-06T05:28:52.245Z,-0.38
2022-12-06T05:31:20.701Z,-0.43
2022-12-06T05:33:49.607Z,-0.46
2022-12-06T05:36:19.993Z,-0.46
2022-12-06T05:38:51.309Z,-0.47
2022-12-06T05:41:22.002Z,-0.43
2022-12-06T05:43:49.996Z,-0.41
2022-12-06T05:46:18.377Z,-0.44
2022-12-06T05:48:46.317Z,-0.44
2022-12-06T05:51:14.157Z,-0.43
2022-12-06T05:53:41.891Z,-0.40
2022-12-06T05:56:11.339Z,-0.49
2022-12-06T05:58:41.912Z,-0.54
2022-12-06T06:01:10.439Z,-0.56
2022-12-06T06:03:43.853Z,-0.55
2022-12-06T06:06:13.359Z,-0.55
2022-12-06T06:08:41.063Z,-0.64
2022-12-06T06:11:08.806Z,-0.58
2022-12-06T06:13:36.507Z,-0.59
2022-12-06T06:16:06.316Z,-0.57
2022-12-06T06:18:34.044Z,-0.54
2022-12-06T06:21:01.757Z,-0.50
2022-12-06T06:23:29.926Z,-0.45
2022-12-06T06:25:57.934Z,-0.35
2022-12-06T06:28:25.942Z,-0.29
2022-12-06T06:30:53.715Z,-0.36
2022-12-06T06:33:22.808Z,-0.45
2022-12-06T06:35:50.517Z,-0.50
2022-12-06T06:38:18.229Z,-0.46
2022-12-06T06:40:46.046Z,-0.48
2022-12-06T06:43:20.358Z,-0.46
2022-12-06T06:45:53.308Z,-0.39
2022-12-06T06:48:23.414Z,-0.32
2022-12-06T06:50:56.698Z,-0.29
2022-12-06T06:53:27.389Z,-0.26
2022-12-06T06:55:55.075Z,-0.26
2022-12-06T06:58:22.877Z,-0.25
2022-12-06T07:00:53.746Z,-0.21
2022-12-06T07:03:22.925Z,-0.15
2022-12-06T07:05:54.378Z,-0.11
2022-12-06T07:08:22.743Z,-0.06
2022-12-06T07:10:50.854Z,0.06
2022-12-06T07:13:19.143Z,0.05
2022-12-06T07:15:46.962Z,0.10
2022-12-06T07:18:14.776Z,0.06
2022-12-06T07:20:43.904Z,0.07
2022-12-06T07:23:11.655Z,0.14
2022-12-06T07:25:39.387Z,0.18
2022-12-06T07:28:07.317Z,0.10
2022-12-06T07:30:35.299Z,0.05
2022-12-06T07:33:03.062Z,0.02
2022-12-06T07:35:55.693Z,-0.07
2022-12-06T07:38:20.139Z,-0.11
2022-12-06T07:41:04.006Z,-0.13
2022-12-06T07:43:49.892Z,-0.16
2022-12-06T07:46:17.777Z,-0.21
2022-12-06T07:48:45.672Z,-0.16
2022-12-06T07:51:13.360Z,-0.07
2022-12-06T07:53:42.923Z,0.02
2022-12-06T07:56:10.868Z,0.10
2022-12-06T07:58:38.534Z,0.09
2022-12-06T08:01:06.648Z,0.11
2022-12-06T08:03:34.454Z,0.17
2022-12-06T08:06:02.186Z,0.23
2022-12-06T08:08:29.951Z,0.29
2022-12-06T08:11:01.499Z,0.34
2022-12-06T08:13:29.498Z,0.42
2022-12-06T08:15:59.475Z,0.51
2022-12-06T08:18:27.174Z,0.62
2022-12-06T08:20:55.269Z,0.69
2022-12-06T08:23:23.011Z,0.86
2022-12-06T08:25:58.146Z,0.93
2022-12-06T08:28:27.510Z,1.00
2022-12-06T08:31:01.292Z,1.12
2022-12-06T08:33:30.577Z,1.12
2022-12-06T08:35:58.342Z,1.24
2022-12-06T08:38:26.117Z,1.35
2022-12-06T08:40:53.851Z,1.48
2022-12-06T08:43:21.568Z,1.50
2022-12-06T08:45:53.380Z,1.60
2022-12-06T08:48:21.412Z,1.58
2022-12-06T08:50:49.198Z,1.53
2022-12-06T08:53:17.149Z,1.57
2022-12-06T08:56:00.383Z,1.64
2022-12-06T08:58:30.265Z,1.68
2022-12-06T09:00:59.432Z,1.83
2022-12-06T09:03:27.658Z,1.86
2022-12-06T09:05:55.347Z,1.90
2022-12-06T09:08:27.568Z,1.91
2022-12-06T09:10:55.288Z,2.03
2022-12-06T09:13:22.941Z,2.02
2022-12-06T09:15:53.454Z,2.08
2022-12-06T09:18:22.567Z,2.20
2022-12-06T09:20:50.353Z,2.16
2022-12-06T09:23:18.147Z,2.21
2022-12-06T09:25:45.885Z,2.22
2022-12-06T09:28:14.489Z,2.17
2022-12-06T09:30:42.380Z,2.25
2022-12-06T09:33:11.887Z,2.25
2022-12-06T09:35:41.061Z,2.28
2022-12-06T09:38:09.324Z,2.47
2022-12-06T09:40:48.018Z,2.47
2022-12-06T09:43:28.430Z,2.52
2022-12-06T09:46:15.965Z,2.45
2022-12-06T09:49:05.516Z,2.42
2022-12-06T09:51:50.878Z,2.53
2022-12-06T09:54:44.980Z,2.52
2022-12-06T09:57:23.024Z,2.47
2022-12-06T09:59:57.722Z,2.41
2022-12-06T10:02:46.157Z,2.48
2022-12-06T10:05:37.429Z,2.43
2022-12-06T10:08:21.113Z,2.51
2022-12-06T10:10:57.083Z,2.42
2022-12-06T10:13:40.933Z,2.51
2022-12-06T10:16:16.543Z,2.50
2022-12-06T10:19:08.254Z,2.46
2022-12-06T10:21:47.079Z,2.49
2022-12-06T10:24:31.751Z,2.54
2022-12-06T10:27:08.173Z,2.43
2022-12-06T10:29:46.398Z,2.53
2022-12-06T10:32:19.363Z,2.56
2022-12-06T10:34:55.294Z,2.57
2022-12-06T10:37:35.207Z,2.59
2022-12-06T10:40:13.531Z,2.72
2022-12-06T10:42:46.143Z,2.74
2022-12-06T10:45:41.359Z,2.73
2022-12-06T10:48:16.617Z,2.81
2022-12-06T10:50:48.065Z,2.80
2022-12-06T10:53:20.857Z,2.86
2022-12-06T10:55:55.670Z,2.81
2022-12-06T10:58:35.619Z,2.84
2022-12-06T11:01:07.815Z,2.80
2022-12-06T11:03:42.980Z,2.73
2022-12-06T11:06:15.213Z,2.74
2022-12-06T11:08:47.820Z,2.86
2022-12-06T11:11:20.984Z,2.86
2022-12-06T11:13:53.409Z,2.83
2022-12-06T11:16:25.188Z,2.81
2022-12-06T11:18:53.643Z,2.82
2022-12-06T11:21:29.075Z,2.85
2022-12-06T11:24:03.750Z,2.88
2022-12-06T11:26:39.071Z,2.78
2022-12-06T11:29:12.401Z,2.83
2022-12-06T11:31:45.597Z,2.80
2022-12-06T11:34:17.047Z,2.78
2022-12-06T11:36:46.227Z,2.74
2022-12-06T11:39:17.986Z,2.81
2022-12-06T11:41:51.160Z,2.75
2022-12-06T11:44:21.937Z,2.80
2022-12-06T11:46:55.513Z,2.80
2022-12-06T11:49:28.708Z,2.93
2022-12-06T11:51:58.753Z,3.04
2022-12-06T11:54:31.828Z,2.98
2022-12-06T11:57:10.843Z,2.91
2022-12-06T11:59:38.616Z,2.94
2022-12-06T12:02:07.142Z,2.97
2022-12-06T12:04:38.207Z,2.90
2022-12-06T12:07:13.745Z,2.83
2022-12-06T12:09:49.578Z,2.77
2022-12-06T12:12:21.922Z,2.88
2022-12-06T12:14:56.956Z,2.98
2022-12-06T12:17:29.262Z,3.06
2022-12-06T12:20:00.131Z,2.98
2022-12-06T12:22:35.299Z,2.98
2022-12-06T12:25:21.423Z,2.96
2022-12-06T12:27:52.469Z,2.97
2022-12-06T12:30:33.005Z,3.07
2022-12-06T12:33:18.490Z,3.01
2022-12-06T12:35:47.496Z,2.95
2022-12-06T12:38:19.408Z,2.94
2022-12-06T12:40:49.726Z,2.87
2022-12-06T12:43:22.479Z,2.88
2022-12-06T12:46:18.212Z,2.93
2022-12-06T12:48:47.278Z,2.96
2022-12-06T12:51:33.961Z,3.06
2022-12-06T12:54:03.527Z,3.02
2022-12-06T12:56:37.083Z,3.10
2022-12-06T12:59:14.441Z,3.10
2022-12-06T13:01:47.783Z,3.21
2022-12-06T13:04:25.450Z,3.27
2022-12-06T13:06:58.982Z,3.13
2022-12-06T13:09:29.925Z,3.13
2022-12-06T13:12:02.818Z,3.07
2022-12-06T13:14:34.085Z,3.09
2022-12-06T13:17:08.053Z,3.03
2022-12-06T13:19:40.546Z,2.94
2022-12-06T13:22:14.324Z,2.94
2022-12-06T13:24:46.485Z,2.99
2022-12-06T13:27:18.855Z,3.10
2022-12-06T13:29:55.281Z,3.23
2022-12-06T13:32:27.850Z,3.23
2022-12-06T13:34:59.886Z,3.24
2022-12-06T13:37:30.460Z,3.26
2022-12-06T13:39:58.458Z,3.29
2022-12-06T13:42:43.989Z,3.33
2022-12-06T13:45:43.168Z,3.30
2022-12-06T13:48:39.699Z,3.36
2022-12-06T13:51:14.190Z,3.34
2022-12-06T13:54:19.182Z,3.27
2022-12-06T13:56:46.982Z,3.30
2022-12-06T13:59:47.993Z,3.36
2022-12-06T14:02:55.029Z,3.33
2022-12-06T14:06:07.419Z,3.29
2022-12-06T14:08:40.178Z,3.23
2022-12-06T14:11:16.456Z,3.33
2022-12-06T14:13:46.605Z,3.31
2022-12-06T14:16:22.651Z,3.34
2022-12-06T14:18:51.636Z,3.27
2022-12-06T14:21:25.013Z,3.34
2022-12-06T14:23:52.957Z,3.33
2022-12-06T14:26:23.315Z,3.27
2022-12-06T14:28:52.946Z,3.18
2022-12-06T14:31:27.175Z,3.08
2022-12-06T14:33:56.234Z,3.06
2022-12-06T14:36:31.289Z,3.01
2022-12-06T14:39:01.904Z,2.94
2022-12-06T14:41:52.737Z,3.02
2022-12-06T14:44:21.885Z,3.02
2022-12-06T14:46:50.673Z,3.09
2022-12-06T14:49:39.606Z,2.99
2022-12-06T14:52:27.025Z,2.99
2022-12-06T14:55:16.084Z,3.00
2022-12-06T14:57:47.831Z,2.94
2022-12-06T15:00:26.528Z,2.95
2022-12-06T15:03:04.384Z,2.93
2022-12-06T15:05:37.497Z,2.88
2022-12-06T15:08:33.800Z,2.80
2022-12-06T15:11:03.435Z,2.66
2022-12-06T15:13:30.370Z,2.63
2022-12-06T15:16:14.097Z,2.61
2022-12-06T15:18:45.823Z,2.66
2022-12-06T15:21:14.603Z,2.67
2022-12-06T15:23:53.198Z,2.67
2022-12-06T15:26:22.572Z,2.64
2022-12-06T15:28:51.279Z,2.65
2022-12-06T15:31:21.321Z,2.62
2022-12-06T15:33:49.769Z,2.59
2022-12-06T15:36:19.435Z,2.58
2022-12-06T15:38:47.330Z,2.51
2022-12-06T15:41:22.894Z,2.43
2022-12-06T15:43:51.036Z,2.37
2022-12-06T15:46:20.631Z,2.34
2022-12-06T15:48:48.545Z,2.36
2022-12-06T15:51:20.882Z,2.29
2022-12-06T15:53:50.508Z,2.22
2022-12-06T15:56:21.440Z,2.16
2022-12-06T15:58:50.372Z,2.21
2022-12-06T16:01:21.238Z,2.18
2022-12-06T16:03:49.392Z,2.13
2022-12-06T16:06:19.309Z,2.19
2022-12-06T16:08:47.727Z,2.23
2022-12-06T16:11:17.939Z,2.24
2022-12-06T16:13:47.208Z,2.18
2022-12-06T16:16:16.535Z,2.14
2022-12-06T16:18:44.501Z,2.18
2022-12-06T16:21:20.243Z,2.22
2022-12-06T16:24:18.940Z,2.22
2022-12-06T16:26:47.018Z,2.19
2022-12-06T16:29:19.012Z,2.13
2022-12-06T16:31:48.192Z,2.09
2022-12-06T16:34:16.715Z,2.07
2022-12-06T16:36:55.747Z,2.19
2022-12-06T16:39:23.717Z,2.24
2022-12-06T16:41:51.514Z,2.15
2022-12-06T16:44:20.585Z,2.14
2022-12-06T16:46:48.442Z,2.17
2022-12-06T16:52:06.796Z,2.17
2022-12-06T16:54:34.512Z,2.24
2022-12-06T16:57:02.434Z,2.29
2022-12-06T16:59:31.584Z,2.31
2022-12-06T17:01:59.434Z,2.31
2022-12-06T17:04:27.222Z,2.19
2022-12-06T17:06:54.955Z,2.22
2022-12-06T17:09:22.836Z,2.20
2022-12-06T17:12:06.874Z,2.16
2022-12-06T17:14:38.022Z,2.14
2022-12-06T17:17:06.119Z,2.14
2022-12-06T17:19:34.524Z,2.21
2022-12-06T17:22:03.348Z,2.20
2022-12-06T17:24:31.199Z,2.18
2022-12-06T17:27:01.296Z,2.19
2022-12-06T17:29:29.395Z,2.22
2022-12-06T17:31:58.555Z,2.21
2022-12-06T17:34:26.482Z,2.21
2022-12-06T17:36:54.873Z,2.22
2022-12-06T17:39:22.957Z,2.13
2022-12-06T17:42:08.636Z,2.16
2022-12-06T17:44:36.705Z,2.20
2022-12-06T17:47:05.860Z,2.19
2022-12-06T17:49:35.935Z,2.20
2022-12-06T17:52:03.751Z,2.09
2022-12-06T17:54:31.558Z,2.18
2022-12-06T17:57:01.985Z,2.13
2022-12-06T17:59:32.304Z,2.22
2022-12-06T18:02:17.230Z,2.15
2022-12-06T18:04:47.933Z,2.24
2022-12-06T18:07:16.658Z,2.25
2022-12-06T18:09:44.416Z,2.29
2022-12-06T18:12:12.929Z,2.27
2022-12-06T18:14:40.730Z,2.27
2022-12-06T18:17:08.932Z,2.28
2022-12-06T18:19:36.914Z,2.37
2022-12-06T18:22:06.014Z,2.37
2022-12-06T18:24:36.160Z,2.36
2022-12-06T18:27:08.180Z,2.38
2022-12-06T18:29:36.221Z,2.40
2022-12-06T18:32:04.713Z,2.47
2022-12-06T18:34:32.696Z,2.45
2022-12-06T18:37:00.632Z,2.42
2022-12-06T18:39:29.728Z,2.35
2022-12-06T18:41:57.400Z,2.49
2022-12-06T18:44:25.460Z,2.51
2022-12-06T18:46:53.208Z,2.51
2022-12-06T18:49:20.994Z,2.52
2022-12-06T18:51:48.696Z,2.59
2022-12-06T18:54:16.474Z,2.62
2022-12-06T18:56:45.636Z,2.58
2022-12-06T18:59:13.511Z,2.59
2022-12-06T19:01:43.883Z,2.58
2022-12-06T19:04:16.407Z,2.56
2022-12-06T19:06:45.422Z,2.59
2022-12-06T19:09:15.622Z,2.51
2022-12-06T19:11:46.746Z,2.55
2022-12-06T19:14:15.439Z,2.58
2022-12-06T19:16:44.833Z,2.57
2022-12-06T19:19:16.894Z,2.53
2022-12-06T19:21:46.572Z,2.57
2022-12-06T19:24:16.630Z,2.59
2022-12-06T19:26:46.684Z,2.54
2022-12-06T19:29:15.507Z,2.54
2022-12-06T19:31:43.466Z,2.52
2022-12-06T19:34:16.558Z,2.50
2022-12-06T19:36:44.879Z,2.45
2022-12-06T19:39:13.939Z,2.45
2022-12-06T19:42:00.042Z,2.44
2022-12-06T19:44:30.494Z,2.54
2022-12-06T19:46:59.233Z,2.53
2022-12-06T19:49:28.508Z,2.54
2022-12-06T19:51:56.868Z,2.58
2022-12-06T19:54:26.111Z,2.52
2022-12-06T19:56:56.812Z,2.53
2022-12-06T19:59:27.087Z,2.53
2022-12-06T20:01:58.156Z,2.56
2022-12-06T20:04:28.150Z,2.54
2022-12-06T20:06:56.049Z,2.44
2022-12-06T20:09:27.017Z,2.48
2022-12-06T20:12:04.649Z,2.50
2022-12-06T20:14:36.627Z,2.48
2022-12-06T20:17:07.425Z,2.44
2022-12-06T20:19:35.244Z,2.51
2022-12-06T20:22:03.096Z,2.52
2022-12-06T20:24:31.260Z,2.43
2022-12-06T20:26:59.047Z,2.49
2022-12-06T20:29:30.010Z,2.44
2022-12-06T20:31:59.542Z,2.51
2022-12-06T20:34:34.237Z,2.52
2022-12-06T20:37:04.139Z,2.52
2022-12-06T20:39:35.305Z,2.55
2022-12-06T20:42:05.653Z,2.55
2022-12-06T20:44:33.799Z,2.50
2022-12-06T20:47:01.697Z,2.50
2022-12-06T20:49:31.226Z,2.45
2022-12-06T20:52:02.127Z,2.47
2022-12-06T20:54:30.144Z,2.48
2022-12-06T20:56:58.454Z,2.43
2022-12-06T20:59:26.281Z,2.54
2022-12-06T21:01:54.996Z,2.52
2022-12-06T21:04:23.473Z,2.55
2022-12-06T21:06:52.682Z,2.50
2022-12-06T21:09:20.813Z,2.54
2022-12-06T21:11:49.351Z,2.55
2022-12-06T21:14:18.598Z,2.51
2022-12-06T21:16:46.368Z,2.51
2022-12-06T21:19:17.067Z,2.48
2022-12-06T21:21:47.124Z,2.46
2022-12-06T21:24:18.700Z,2.52
2022-12-06T21:26:47.407Z,2.58
2022-12-06T21:29:17.357Z,2.59
2022-12-06T21:31:45.500Z,2.58
2022-12-06T21:34:14.134Z,2.62
2022-12-06T21:36:42.173Z,2.55
2022-12-06T21:39:11.551Z,2.51
2022-12-06T21:41:40.880Z,2.48
2022-12-06T21:44:08.577Z,2.45
2022-12-06T21:46:36.419Z,2.52
2022-12-06T21:49:04.342Z,2.51
2022-12-06T21:51:33.027Z,2.51
2022-12-06T21:54:01.562Z,2.56
2022-12-06T21:56:31.194Z,2.50
2022-12-06T21:59:01.472Z,2.56
2022-12-06T22:01:30.781Z,2.48
2022-12-06T22:04:01.023Z,2.47
2022-12-06T22:06:31.730Z,2.54
2022-12-06T22:09:04.232Z,2.54
2022-12-06T22:11:33.125Z,2.45
2022-12-06T22:14:04.710Z,2.49
2022-12-06T22:16:32.794Z,2.50
2022-12-06T22:19:00.619Z,2.42
2022-12-06T22:21:33.163Z,2.42
2022-12-06T22:24:01.627Z,2.52
2022-12-06T22:26:31.361Z,2.44
2022-12-06T22:28:59.926Z,2.42
2022-12-06T22:31:30.801Z,2.47
2022-12-06T22:33:59.015Z,2.45
2022-12-06T22:36:27.858Z,2.52
2022-12-06T22:38:57.631Z,2.53
2022-12-06T22:41:26.332Z,2.53
2022-12-06T22:43:58.673Z,2.50
2022-12-06T22:46:27.252Z,2.44
2022-12-06T22:48:57.474Z,2.47
2022-12-06T22:51:27.534Z,2.50
2022-12-06T22:53:58.631Z,2.50
2022-12-06T22:56:27.441Z,2.52
2022-12-06T23:03:23.793Z,2.39
2022-12-06T23:05:58.079Z,2.39
2022-12-06T23:08:25.907Z,2.35
2022-12-06T23:11:00.768Z,2.31
2022-12-06T23:13:28.691Z,2.34
2022-12-06T23:15:57.720Z,2.25
2022-12-06T23:18:27.930Z,2.24
2022-12-06T23:21:03.318Z,2.22
2022-12-06T23:23:30.993Z,2.29
2022-12-06T23:26:02.714Z,2.25
2022-12-06T23:28:31.010Z,2.31
2022-12-06T23:31:03.658Z,2.35
2022-12-06T23:33:33.277Z,2.34
2022-12-06T23:36:06.864Z,2.30
2022-12-06T23:38:35.253Z,2.25
2022-12-06T23:41:04.146Z,2.26
2022-12-06T23:43:32.113Z,2.29
2022-12-06T23:46:05.689Z,2.29
2022-12-06T23:48:36.906Z,2.24
2022-12-06T23:51:07.606Z,2.26
2022-12-06T23:53:35.735Z,2.26
2022-12-06T23:56:07.402Z,2.23
2022-12-06T23:58:35.274Z,2.29
